createdAt,value
2019-05-10T00:00:14.767Z,0.72
2019-05-10T00:03:02.543Z,1.22
2019-05-10T00:05:50.424Z,1.30
2019-05-10T00:08:38.322Z,0.50
2019-05-10T00:11:27.276Z,0.82
2019-05-10T00:14:19.454Z,0.70
2019-05-10T00:16:51.116Z,1.10
2019-05-10T00:19:22.258Z,2.75
2019-05-10T00:21:52.038Z,0.70
2019-05-10T00:24:23.080Z,1.00
2019-05-10T00:26:53.030Z,0.98
2019-05-10T00:29:23.029Z,0.70
2019-05-10T00:31:52.861Z,0.80
2019-05-10T00:34:22.644Z,0.93
2019-05-10T00:36:52.437Z,0.78
2019-05-10T00:39:22.244Z,2.25
2019-05-10T00:41:52.160Z,2.37
2019-05-10T00:44:21.947Z,1.35
2019-05-10T00:46:51.866Z,0.93
2019-05-10T00:49:21.799Z,0.88
2019-05-10T00:51:53.104Z,1.35
2019-05-10T00:54:23.152Z,1.02
2019-05-10T00:56:53.020Z,1.22
2019-05-10T00:59:22.850Z,1.32
2019-05-10T01:05:40.549Z,0.85
2019-05-10T01:08:10.335Z,0.82
2019-05-10T01:10:40.255Z,1.27
2019-05-10T01:13:10.483Z,1.10
2019-05-10T01:15:40.733Z,1.00
2019-05-10T01:18:10.698Z,0.75
2019-05-10T01:20:40.481Z,1.35
2019-05-10T01:23:10.666Z,1.20
2019-05-10T01:25:40.490Z,1.52
2019-05-10T01:28:10.391Z,1.20
2019-05-10T01:30:40.425Z,1.60
2019-05-10T01:33:10.494Z,1.87
2019-05-10T01:35:40.339Z,2.30
2019-05-10T01:38:11.287Z,1.40
2019-05-10T01:40:41.615Z,2.52
2019-05-10T01:43:11.482Z,2.98
2019-05-10T01:45:41.318Z,3.70
2019-05-10T01:48:12.091Z,3.08
2019-05-10T01:50:41.992Z,3.65
2019-05-10T01:53:12.034Z,2.80
2019-05-10T01:55:51.602Z,2.83
2019-05-10T01:58:13.895Z,2.22
2019-05-10T02:00:43.768Z,3.58
2019-05-10T02:03:13.653Z,2.55
2019-05-10T02:05:43.571Z,4.15
2019-05-10T02:08:13.505Z,6.10
2019-05-10T02:10:43.435Z,3.33
2019-05-10T02:13:13.232Z,3.00
2019-05-10T02:15:43.279Z,3.60
2019-05-10T02:18:13.409Z,2.92
2019-05-10T02:20:43.230Z,3.33
2019-05-10T02:23:13.155Z,4.62
2019-05-10T02:25:43.075Z,3.22
2019-05-10T02:28:13.193Z,4.03
2019-05-10T02:30:43.225Z,5.03
2019-05-10T02:33:13.338Z,4.30
2019-05-10T02:35:43.223Z,3.33
2019-05-10T02:38:13.093Z,3.52
2019-05-10T02:40:43.018Z,4.15
2019-05-10T02:43:12.892Z,3.17
2019-05-10T02:45:42.660Z,3.90
2019-05-10T02:48:12.584Z,3.42
2019-05-10T02:50:42.448Z,2.67
2019-05-10T02:53:12.430Z,4.12
2019-05-10T02:55:43.474Z,2.62
2019-05-10T02:58:15.472Z,3.33
2019-05-10T03:00:48.756Z,3.10
2019-05-10T03:03:21.844Z,3.58
2019-05-10T03:05:53.792Z,5.40
2019-05-10T03:08:24.693Z,3.62
2019-05-10T03:11:00.058Z,3.80
2019-05-10T03:13:31.105Z,5.00
2019-05-10T03:16:04.866Z,4.95
2019-05-10T03:18:34.734Z,3.35
2019-05-10T03:21:07.343Z,3.55
2019-05-10T03:23:39.425Z,3.45
2019-05-10T03:26:09.441Z,4.42
2019-05-10T03:28:39.415Z,4.22
2019-05-10T03:31:09.318Z,6.58
2019-05-10T03:33:39.795Z,5.92
2019-05-10T03:36:10.164Z,5.15
2019-05-10T03:38:40.371Z,7.03
2019-05-10T03:41:10.394Z,4.12
2019-05-10T03:43:40.591Z,4.47
2019-05-10T03:46:10.466Z,6.33
2019-05-10T03:48:40.377Z,5.67
2019-05-10T03:51:10.218Z,3.65
2019-05-10T03:53:40.107Z,5.95
2019-05-10T03:56:10.160Z,6.58
2019-05-10T03:58:40.371Z,6.62
2019-05-10T04:01:10.508Z,6.58
2019-05-10T04:03:40.396Z,6.92
2019-05-10T04:06:11.313Z,7.22
2019-05-10T04:08:41.174Z,6.85
2019-05-10T04:11:11.242Z,6.47
2019-05-10T04:13:41.138Z,9.15
2019-05-10T04:16:11.092Z,6.25
2019-05-10T04:18:40.894Z,7.45
2019-05-10T04:21:10.892Z,8.18
2019-05-10T04:23:41.089Z,7.28
2019-05-10T04:26:11.200Z,7.65
2019-05-10T04:28:41.042Z,7.58
2019-05-10T04:31:10.867Z,6.03
2019-05-10T04:33:40.702Z,7.20
2019-05-10T04:36:12.739Z,5.58
2019-05-10T04:38:42.052Z,6.00
2019-05-10T04:41:12.085Z,5.60
2019-05-10T04:43:41.885Z,5.47
2019-05-10T04:46:12.058Z,7.72
2019-05-10T04:48:41.813Z,5.22
2019-05-10T04:51:11.710Z,6.08
2019-05-10T04:53:41.798Z,5.60
2019-05-10T04:56:11.955Z,4.90
2019-05-10T04:58:42.502Z,4.53
2019-05-10T05:01:12.215Z,7.00
2019-05-10T05:03:42.873Z,5.62
2019-05-10T05:06:13.922Z,6.65
2019-05-10T05:08:43.724Z,4.75
2019-05-10T05:11:13.538Z,5.53
2019-05-10T05:13:43.941Z,7.08
2019-05-10T05:16:14.236Z,4.90
2019-05-10T05:18:44.401Z,3.92
2019-05-10T05:21:14.255Z,4.58
2019-05-10T05:23:44.117Z,5.45
2019-05-10T05:26:13.976Z,7.17
2019-05-10T05:28:43.800Z,8.50
2019-05-10T05:31:13.635Z,6.33
2019-05-10T05:33:43.567Z,5.28
2019-05-10T05:36:13.966Z,5.17
2019-05-10T05:38:47.262Z,5.35
2019-05-10T05:41:15.701Z,6.65
2019-05-10T05:43:46.609Z,5.22
2019-05-10T05:46:17.072Z,5.08
2019-05-10T05:48:47.034Z,6.95
2019-05-10T05:51:16.954Z,6.37
2019-05-10T05:53:46.796Z,4.95
2019-05-10T05:56:16.739Z,5.28
2019-05-10T05:58:47.210Z,4.60
2019-05-10T06:01:26.212Z,7.78
2019-05-10T06:03:48.895Z,4.97
2019-05-10T06:06:23.478Z,4.45
2019-05-10T06:08:54.516Z,4.25
2019-05-10T06:11:22.298Z,3.70
2019-05-10T06:13:52.117Z,5.70
2019-05-10T06:16:22.370Z,3.98
2019-05-10T06:18:52.572Z,5.67
2019-05-10T06:21:24.517Z,6.97
2019-05-10T06:23:54.847Z,2.45
2019-05-10T06:26:28.546Z,4.22
2019-05-10T06:29:03.344Z,4.17
2019-05-10T06:31:27.910Z,6.67
2019-05-10T06:33:57.750Z,3.05
2019-05-10T06:36:27.775Z,4.08
2019-05-10T06:38:57.701Z,3.98
2019-05-10T06:41:28.128Z,8.28
2019-05-10T06:43:58.599Z,4.70
2019-05-10T06:46:29.396Z,3.55
2019-05-10T06:49:07.211Z,3.30
2019-05-10T06:51:31.958Z,4.55
2019-05-10T06:54:01.818Z,9.63
2019-05-10T06:56:31.907Z,3.75
2019-05-10T06:59:12.828Z,2.30
2019-05-10T07:01:38.480Z,3.05
2019-05-10T07:04:05.632Z,1.90
2019-05-10T07:06:35.430Z,2.55
2019-05-10T07:09:06.970Z,4.05
2019-05-10T07:11:36.927Z,3.33
2019-05-10T07:14:06.865Z,3.95
2019-05-10T07:16:36.650Z,5.83
2019-05-10T07:19:06.747Z,3.87
2019-05-10T07:21:38.971Z,3.65
2019-05-10T07:24:08.993Z,4.15
2019-05-10T07:26:38.811Z,2.70
2019-05-10T07:29:09.132Z,2.80
2019-05-10T07:31:39.313Z,2.37
2019-05-10T07:34:15.066Z,1.80
2019-05-10T07:36:41.605Z,3.70
2019-05-10T07:39:11.463Z,2.72
2019-05-10T07:41:41.448Z,2.50
2019-05-10T07:44:11.395Z,1.77
2019-05-10T07:46:46.442Z,2.47
2019-05-10T07:49:14.051Z,3.02
2019-05-10T07:51:44.002Z,3.22
2019-05-10T07:54:14.656Z,4.95
2019-05-10T07:56:45.548Z,3.05
2019-05-10T07:59:21.497Z,4.15
2019-05-10T08:01:49.197Z,4.87
2019-05-10T08:04:28.054Z,2.65
2019-05-10T08:06:51.950Z,2.70
2019-05-10T08:09:22.147Z,3.12
2019-05-10T08:11:54.140Z,2.72
2019-05-10T08:14:25.465Z,2.60
2019-05-10T08:17:01.975Z,2.40
2019-05-10T08:19:32.792Z,3.60
2019-05-10T08:22:04.333Z,3.00
2019-05-10T08:24:35.358Z,2.45
2019-05-10T08:27:11.227Z,3.35
2019-05-10T08:29:35.678Z,2.17
2019-05-10T08:32:06.002Z,2.40
2019-05-10T08:34:39.385Z,3.50
2019-05-10T08:37:07.637Z,3.67
2019-05-10T08:39:45.115Z,3.05
2019-05-10T08:42:30.419Z,2.17
2019-05-10T08:44:42.665Z,1.98
2019-05-10T08:47:19.578Z,2.65
2019-05-10T08:49:57.147Z,3.10
2019-05-10T08:52:19.401Z,1.85
2019-05-10T08:54:47.541Z,2.17
2019-05-10T08:57:18.836Z,2.80
2019-05-10T08:59:54.241Z,2.15
2019-05-10T09:02:28.934Z,3.22
2019-05-10T09:04:53.753Z,3.02
2019-05-10T09:07:23.541Z,2.40
2019-05-10T09:09:53.374Z,2.65
2019-05-10T09:12:23.316Z,2.25
2019-05-10T09:14:57.586Z,2.75
2019-05-10T09:17:28.305Z,3.95
2019-05-10T09:19:56.317Z,1.75
2019-05-10T09:22:34.098Z,3.50
2019-05-10T09:24:57.885Z,2.42
2019-05-10T09:27:29.093Z,1.92
2019-05-10T09:29:59.348Z,2.15
2019-05-10T09:32:30.632Z,1.55
2019-05-10T09:35:07.974Z,1.22
2019-05-10T09:37:32.429Z,1.45
2019-05-10T09:40:09.224Z,1.55
2019-05-10T09:42:39.981Z,1.32
2019-05-10T09:45:09.527Z,1.90
2019-05-10T09:47:39.187Z,2.02
2019-05-10T09:50:09.489Z,1.30
2019-05-10T09:52:39.653Z,1.15
2019-05-10T09:55:14.770Z,2.62
2019-05-10T09:57:43.018Z,1.60
2019-05-10T10:00:13.913Z,1.30
2019-05-10T10:02:47.821Z,2.20
2019-05-10T10:05:17.885Z,2.08
2019-05-10T10:07:48.590Z,2.65
2019-05-10T10:10:28.600Z,1.20
2019-05-10T10:12:50.913Z,2.17
2019-05-10T10:15:32.180Z,2.35
2019-05-10T10:17:52.803Z,1.35
2019-05-10T10:20:22.655Z,1.67
2019-05-10T10:22:54.653Z,0.95
2019-05-10T10:25:27.742Z,0.90
2019-05-10T10:27:57.410Z,0.60
2019-05-10T10:30:31.117Z,0.50
2019-05-10T10:32:59.390Z,1.35
2019-05-10T10:35:29.960Z,2.05
2019-05-10T10:38:03.122Z,0.60
2019-05-10T10:40:35.343Z,1.55
2019-05-10T10:43:03.147Z,0.65
2019-05-10T10:45:33.046Z,0.60
2019-05-10T10:48:10.678Z,0.65
2019-05-10T10:50:34.511Z,1.32
2019-05-10T10:53:04.976Z,0.57
2019-05-10T10:55:39.361Z,1.20
2019-05-10T10:58:07.527Z,0.85
2019-05-10T11:00:39.192Z,2.55
2019-05-10T11:03:09.256Z,0.60
2019-05-10T11:05:39.381Z,2.62
2019-05-10T11:08:11.162Z,1.02
2019-05-10T11:10:43.029Z,1.82
2019-05-10T11:13:18.980Z,1.92
2019-05-10T11:15:44.452Z,1.65
2019-05-10T11:18:14.287Z,3.12
2019-05-10T11:20:49.533Z,1.60
2019-05-10T11:23:16.408Z,0.93
2019-05-10T11:25:54.730Z,1.12
2019-05-10T11:28:20.534Z,0.85
2019-05-10T11:30:51.178Z,1.02
2019-05-10T11:33:27.235Z,1.82
2019-05-10T11:35:52.632Z,2.08
2019-05-10T11:38:22.509Z,2.10
2019-05-10T11:40:52.425Z,1.72
2019-05-10T11:43:26.944Z,0.70
2019-05-10T11:45:54.799Z,1.80
2019-05-10T11:48:37.416Z,1.72
2019-05-10T11:51:12.509Z,1.80
2019-05-10T11:53:48.769Z,1.80
2019-05-10T11:56:16.351Z,1.12
2019-05-10T11:58:54.966Z,1.37
2019-05-10T12:01:22.429Z,1.20
2019-05-10T12:03:57.352Z,1.00
2019-05-10T12:06:41.214Z,1.77
2019-05-10T12:09:12.695Z,1.57
2019-05-10T12:11:56.664Z,0.80
2019-05-10T12:14:22.071Z,0.60
2019-05-10T12:16:54.815Z,2.05
2019-05-10T12:19:25.092Z,0.65
2019-05-10T12:21:56.831Z,1.32
2019-05-10T12:24:46.661Z,1.45
2019-05-10T12:27:18.971Z,1.47
2019-05-10T12:29:39.143Z,1.00
2019-05-10T12:32:10.442Z,1.25
2019-05-10T12:34:40.989Z,1.10
2019-05-10T12:37:11.306Z,1.05
2019-05-10T12:39:41.187Z,0.98
2019-05-10T12:42:14.355Z,0.50
2019-05-10T12:44:48.062Z,1.85
2019-05-10T12:47:15.257Z,0.42
2019-05-10T12:49:45.175Z,0.85
2019-05-10T12:52:16.277Z,0.70
2019-05-10T12:54:46.311Z,0.85
2019-05-10T12:57:16.264Z,3.10
2019-05-10T12:59:46.155Z,0.95
2019-05-10T13:02:16.194Z,1.98
2019-05-10T13:04:47.330Z,2.20
2019-05-10T13:07:17.702Z,0.50
2019-05-10T13:09:49.803Z,3.25
2019-05-10T13:12:19.156Z,1.50
2019-05-10T13:14:52.712Z,1.50
2019-05-10T13:17:20.681Z,1.57
2019-05-10T13:19:52.785Z,1.10
2019-05-10T13:22:24.212Z,1.75
2019-05-10T13:24:54.409Z,0.60
2019-05-10T13:27:24.342Z,1.50
2019-05-10T13:29:54.407Z,0.70
2019-05-10T13:32:24.843Z,1.75
2019-05-10T13:34:55.628Z,0.50
2019-05-10T13:37:25.673Z,1.10
2019-05-10T13:39:58.334Z,1.35
2019-05-10T13:42:27.523Z,1.27
2019-05-10T13:44:57.600Z,0.85
2019-05-10T13:47:27.486Z,4.00
2019-05-10T13:49:57.369Z,1.25
2019-05-10T13:52:29.628Z,0.98
2019-05-10T13:54:59.155Z,1.75
2019-05-10T13:57:30.079Z,0.78
2019-05-10T14:00:02.449Z,1.20
2019-05-10T14:02:34.554Z,3.35
2019-05-10T14:05:04.348Z,1.22
2019-05-10T14:07:34.388Z,0.90
2019-05-10T14:10:04.725Z,1.62
2019-05-10T14:12:35.513Z,1.90
2019-05-10T14:15:12.915Z,1.40
2019-05-10T14:17:38.851Z,2.00
2019-05-10T14:20:19.588Z,1.80
2019-05-10T14:22:48.535Z,1.67
2019-05-10T14:25:17.718Z,1.07
2019-05-10T14:27:47.657Z,0.80
2019-05-10T14:30:18.593Z,0.70
2019-05-10T14:32:48.904Z,0.60
2019-05-10T14:35:22.501Z,4.20
2019-05-10T14:37:51.035Z,1.20
2019-05-10T14:40:27.855Z,0.93
2019-05-10T14:42:53.178Z,1.32
2019-05-10T14:45:23.882Z,1.52
2019-05-10T14:47:53.703Z,1.12
2019-05-10T14:50:26.100Z,1.82
2019-05-10T14:52:55.211Z,0.57
2019-05-10T14:55:28.102Z,1.25
2019-05-10T14:57:57.732Z,1.40
2019-05-10T15:00:29.206Z,0.78
2019-05-10T15:03:02.132Z,1.07
2019-05-10T15:05:30.996Z,0.88
2019-05-10T15:08:01.226Z,0.98
2019-05-10T15:10:32.966Z,0.53
2019-05-10T15:13:02.659Z,0.90
2019-05-10T15:15:37.210Z,2.05
2019-05-10T15:18:05.188Z,1.05
2019-05-10T15:20:36.009Z,1.27
2019-05-10T15:23:06.426Z,0.70
2019-05-10T15:25:37.851Z,0.53
2019-05-10T15:28:08.075Z,0.42
2019-05-10T15:30:39.327Z,0.80
2019-05-10T15:33:10.791Z,1.27
2019-05-10T15:35:45.725Z,0.78
2019-05-10T15:38:12.321Z,1.67
2019-05-10T15:40:46.008Z,1.07
2019-05-10T15:43:18.639Z,1.37
2019-05-10T15:45:54.910Z,3.60
2019-05-10T15:48:21.735Z,0.80
2019-05-10T15:50:51.792Z,0.72
2019-05-10T15:53:25.637Z,0.65
2019-05-10T15:55:53.361Z,0.88
2019-05-10T15:58:23.536Z,0.93
2019-05-10T16:00:53.395Z,0.50
2019-05-10T16:03:23.335Z,1.00
2019-05-10T16:06:00.869Z,2.55
2019-05-10T16:08:30.279Z,1.37
2019-05-10T16:10:57.094Z,2.67
2019-05-10T16:13:26.916Z,0.80
2019-05-10T16:15:57.817Z,1.20
2019-05-10T16:18:33.497Z,1.60
2019-05-10T16:21:00.133Z,2.08
2019-05-10T16:23:30.177Z,2.33
2019-05-10T16:26:00.676Z,1.67
2019-05-10T16:28:30.492Z,2.42
2019-05-10T16:31:00.705Z,2.30
2019-05-10T16:33:30.721Z,1.27
2019-05-10T16:36:00.776Z,1.75
2019-05-10T16:38:30.922Z,2.87
2019-05-10T16:41:01.248Z,1.42
2019-05-10T16:43:31.291Z,2.47
2019-05-10T16:46:02.299Z,3.17
2019-05-10T16:48:32.194Z,1.60
2019-05-10T16:51:03.957Z,1.00
2019-05-10T16:53:37.663Z,1.02
2019-05-10T16:56:05.370Z,1.55
2019-05-10T16:58:35.250Z,0.80
2019-05-10T17:01:05.311Z,1.07
2019-05-10T17:03:40.460Z,0.85
2019-05-10T17:06:27.560Z,0.80
2019-05-10T17:08:57.567Z,2.35
2019-05-10T17:11:27.836Z,0.93
2019-05-10T17:13:57.819Z,1.35
2019-05-10T17:16:27.618Z,0.88
2019-05-10T17:18:57.558Z,1.02
2019-05-10T17:21:27.493Z,0.75
2019-05-10T17:23:57.406Z,1.37
2019-05-10T17:26:27.483Z,1.35
2019-05-10T17:28:57.500Z,1.07
2019-05-10T17:31:27.475Z,1.20
2019-05-10T17:33:57.385Z,0.85
2019-05-10T17:36:27.368Z,3.05
2019-05-10T17:38:57.689Z,1.42
2019-05-10T17:41:28.014Z,1.05
2019-05-10T17:43:58.073Z,0.60
2019-05-10T17:46:27.959Z,3.27
2019-05-10T17:48:59.060Z,1.65
2019-05-10T17:51:29.180Z,3.37
2019-05-10T17:54:01.672Z,1.25
2019-05-10T17:56:39.005Z,1.35
2019-05-10T17:59:11.674Z,0.80
2019-05-10T18:01:38.138Z,1.02
2019-05-10T18:04:14.237Z,1.20
2019-05-10T18:06:48.510Z,0.90
2019-05-10T18:09:25.375Z,0.60
2019-05-10T18:11:55.828Z,0.78
2019-05-10T18:14:32.284Z,0.85
2019-05-10T18:17:07.103Z,1.00
2019-05-10T18:19:37.829Z,0.50
2019-05-10T18:22:07.999Z,1.10
2019-05-10T18:24:42.168Z,1.57
2019-05-10T18:27:09.877Z,0.88
2019-05-10T18:29:40.033Z,1.07
2019-05-10T18:32:11.202Z,1.27
2019-05-10T18:34:41.465Z,0.65
2019-05-10T18:37:15.929Z,0.55
2019-05-10T18:39:47.355Z,0.90
2019-05-10T18:42:18.724Z,1.27
2019-05-10T18:44:51.921Z,1.42
2019-05-10T18:47:18.266Z,0.95
2019-05-10T18:49:48.167Z,1.27
2019-05-10T18:52:23.169Z,1.07
2019-05-10T18:55:05.671Z,5.47
2019-05-10T18:57:50.749Z,2.45
2019-05-10T19:00:32.601Z,1.30
2019-05-10T19:06:31.333Z,0.90
2019-05-10T19:09:02.281Z,2.62
2019-05-10T19:11:38.509Z,1.85
2019-05-10T19:14:05.111Z,2.77
2019-05-10T19:16:35.271Z,1.57
2019-05-10T19:19:05.464Z,2.08
2019-05-10T19:21:37.848Z,1.57
2019-05-10T19:24:07.386Z,1.15
2019-05-10T19:26:37.388Z,1.57
2019-05-10T19:29:08.378Z,1.35
2019-05-10T19:31:40.490Z,0.78
2019-05-10T19:34:15.473Z,0.90
2019-05-10T19:36:42.452Z,2.60
2019-05-10T19:39:12.546Z,1.45
2019-05-10T19:41:42.583Z,1.60
2019-05-10T19:44:12.868Z,1.55
2019-05-10T19:46:43.034Z,3.30
2019-05-10T19:49:15.471Z,2.47
2019-05-10T19:51:48.559Z,1.87
2019-05-10T19:54:19.476Z,2.35
2019-05-10T19:56:49.003Z,1.35
2019-05-10T19:59:19.177Z,1.87
2019-05-10T20:01:49.249Z,1.52
2019-05-10T20:04:19.149Z,1.07
2019-05-10T20:06:49.952Z,2.08
2019-05-10T20:09:19.912Z,1.20
2019-05-10T20:11:49.939Z,2.20
2019-05-10T20:14:20.285Z,2.95
2019-05-10T20:16:53.107Z,1.62
2019-05-10T20:19:22.326Z,2.00
2019-05-10T20:21:52.576Z,2.75
2019-05-10T20:24:23.673Z,3.15
2019-05-10T20:26:53.734Z,2.95
2019-05-10T20:29:23.945Z,2.30
2019-05-10T20:31:55.274Z,2.75
2019-05-10T20:34:25.219Z,1.35
2019-05-10T20:36:55.195Z,2.58
2019-05-10T20:39:25.050Z,2.50
2019-05-10T20:41:55.625Z,2.45
2019-05-10T20:44:25.671Z,4.12
2019-05-10T20:46:55.923Z,4.65
2019-05-10T20:49:26.057Z,2.47
2019-05-10T20:51:55.960Z,1.90
2019-05-10T20:54:26.224Z,2.45
2019-05-10T20:56:56.000Z,2.65
2019-05-10T20:59:25.820Z,3.58
2019-05-10T21:01:56.047Z,2.25
2019-05-10T21:04:32.064Z,1.57
2019-05-10T21:07:02.078Z,1.82
2019-05-10T21:09:32.441Z,2.72
2019-05-10T21:12:02.610Z,2.35
2019-05-10T21:14:35.007Z,1.40
2019-05-10T21:17:08.024Z,1.47
2019-05-10T21:19:37.982Z,2.05
2019-05-10T21:22:08.040Z,2.87
2019-05-10T21:24:40.588Z,3.55
2019-05-10T21:27:11.329Z,2.47
2019-05-10T21:29:41.688Z,2.00
2019-05-10T21:32:11.592Z,2.85
2019-05-10T21:34:41.550Z,1.42
2019-05-10T21:37:14.589Z,1.82
2019-05-10T21:39:44.816Z,1.62
2019-05-10T21:42:15.366Z,1.17
2019-05-10T21:44:46.808Z,1.87
2019-05-10T21:47:20.808Z,1.27
2019-05-10T21:49:51.036Z,1.47
2019-05-10T21:52:21.312Z,1.90
2019-05-10T21:54:51.863Z,1.85
2019-05-10T21:57:22.039Z,1.90
2019-05-10T21:59:51.857Z,1.20
2019-05-10T22:02:21.943Z,1.52
2019-05-10T22:04:51.825Z,1.82
2019-05-10T22:07:21.697Z,2.60
2019-05-10T22:09:52.027Z,0.95
2019-05-10T22:12:22.289Z,1.45
2019-05-10T22:14:52.309Z,2.77
2019-05-10T22:17:22.178Z,2.58
2019-05-10T22:19:52.185Z,2.40
2019-05-10T22:22:22.541Z,2.35
2019-05-10T22:24:52.724Z,3.67
2019-05-10T22:27:22.681Z,1.77
2019-05-10T22:29:52.540Z,1.42
2019-05-10T22:32:23.796Z,2.35
2019-05-10T22:34:54.135Z,1.60
2019-05-10T22:37:24.122Z,1.62
2019-05-10T22:39:54.006Z,1.57
2019-05-10T22:42:23.960Z,1.40
2019-05-10T22:44:54.336Z,1.62
2019-05-10T22:47:25.469Z,1.50
2019-05-10T22:49:55.667Z,2.40
2019-05-10T22:52:25.900Z,1.98
2019-05-10T22:54:55.700Z,3.00
2019-05-10T22:57:26.821Z,2.55
2019-05-10T22:59:56.712Z,1.80
2019-05-10T23:02:26.651Z,1.50
2019-05-10T23:04:56.577Z,2.77
2019-05-10T23:07:26.573Z,1.75
2019-05-10T23:09:56.654Z,1.82
2019-05-10T23:12:26.810Z,2.50
2019-05-10T23:14:56.783Z,1.60
2019-05-10T23:17:26.778Z,1.87
2019-05-10T23:19:56.980Z,2.33
2019-05-10T23:22:28.298Z,1.75
2019-05-10T23:24:58.121Z,1.95
2019-05-10T23:27:28.400Z,1.85
2019-05-10T23:29:58.313Z,1.32
2019-05-10T23:32:28.354Z,2.87
2019-05-10T23:34:58.507Z,2.05
2019-05-10T23:37:28.739Z,1.85
2019-05-10T23:39:58.696Z,2.62
2019-05-10T23:42:27.547Z,1.87
2019-05-10T23:44:57.309Z,1.22
2019-05-10T23:47:27.597Z,5.08
2019-05-10T23:49:57.495Z,3.00
2019-05-10T23:52:27.344Z,3.62
2019-05-10T23:54:57.260Z,3.37
2019-05-10T23:57:27.287Z,4.72
2019-05-10T23:59:57.174Z,3.90
